GRL256 BGGH-BGSS
Flight info
| Callsign | GRL256 |
|---|---|
| Flight time | 0h 43m |
| Altitude | 19000 |
| Route | ASCOX1A ASCOX DCT MA DCT LUXOV |
| Aircraft | DH8B/M-SDFGR/S |
Departure
| Time | 2026-04-23 20:41 |
|---|---|
| Airport | Nuuk International Airport (BGGH) |
Arrival
| Time | 2026-04-23 21:24 |
|---|---|
| Airport | Sisimiut Airport (BGSS) |
| Time | Latitude | Longitude | Altitude | Speed | Heading |
|---|---|---|---|---|---|
| 2026-04-23 20:24 | 64.18433 | -51.67855 | 273 ft | 0 kts | 149° |
| 2026-04-23 20:37 | 64.18427 | -51.67863 | 276 ft | 2 kts | 266° |
| 2026-04-23 20:37 | 64.18449 | -51.67931 | 276 ft | 6 kts | 309° |
| 2026-04-23 20:37 | 64.18490 | -51.67995 | 276 ft | 7 kts | 12° |
| 2026-04-23 20:38 | 64.18539 | -51.67961 | 276 ft | 7 kts | 18° |
| 2026-04-23 20:38 | 64.18595 | -51.67921 | 276 ft | 8 kts | 8° |
| 2026-04-23 20:38 | 64.18630 | -51.68015 | 276 ft | 6 kts | 289° |
| 2026-04-23 20:38 | 64.18633 | -51.68040 | 276 ft | 0 kts | 289° |
| 2026-04-23 20:39 | 64.18642 | -51.68090 | 275 ft | 7 kts | 290° |
| 2026-04-23 20:39 | 64.18670 | -51.68221 | 271 ft | 8 kts | 338° |
| 2026-04-23 20:39 | 64.18696 | -51.68218 | 271 ft | 0 kts | 17° |
| 2026-04-23 20:40 | 64.18815 | -51.68131 | 275 ft | 57 kts | 18° |
| 2026-04-23 20:40 | 64.19397 | -51.67704 | 385 ft | 106 kts | 18° |
| 2026-04-23 20:40 | 64.20151 | -51.67147 | 778 ft | 125 kts | 16° |
| 2026-04-23 20:41 | 64.21002 | -51.66869 | 1462 ft | 125 kts | 356° |
| 2026-04-23 20:41 | 64.21777 | -51.67606 | 2136 ft | 125 kts | 335° |
| 2026-04-23 20:41 | 64.22603 | -51.68568 | 2574 ft | 144 kts | 337° |
| 2026-04-23 20:41 | 64.23517 | -51.69610 | 3000 ft | 151 kts | 336° |
| 2026-04-23 20:42 | 64.24474 | -51.70685 | 3399 ft | 157 kts | 337° |
| 2026-04-23 20:42 | 64.25461 | -51.71782 | 3820 ft | 162 kts | 336° |
| 2026-04-23 20:42 | 64.26481 | -51.72913 | 4260 ft | 165 kts | 336° |
| 2026-04-23 20:42 | 64.27516 | -51.74062 | 4700 ft | 168 kts | 336° |
| 2026-04-23 20:43 | 64.28573 | -51.75235 | 5156 ft | 170 kts | 336° |
| 2026-04-23 20:43 | 64.29642 | -51.76421 | 5619 ft | 172 kts | 335° |
| 2026-04-23 20:43 | 64.30714 | -51.77612 | 6074 ft | 173 kts | 335° |
| 2026-04-23 20:43 | 64.31792 | -51.78810 | 6522 ft | 175 kts | 335° |
| 2026-04-23 20:44 | 64.32890 | -51.80032 | 6970 ft | 177 kts | 335° |
| 2026-04-23 20:44 | 64.33991 | -51.81259 | 7409 ft | 179 kts | 334° |
| 2026-04-23 20:44 | 64.35143 | -51.82320 | 7834 ft | 181 kts | 343° |
| 2026-04-23 20:44 | 64.36289 | -51.83489 | 8266 ft | 182 kts | 334° |
| 2026-04-23 20:45 | 64.37426 | -51.84699 | 8694 ft | 184 kts | 335° |
| 2026-04-23 20:45 | 64.38603 | -51.85904 | 9121 ft | 185 kts | 335° |
| 2026-04-23 20:45 | 64.39766 | -51.87076 | 9526 ft | 186 kts | 335° |
| 2026-04-23 20:45 | 64.40966 | -51.88280 | 9930 ft | 188 kts | 335° |
| 2026-04-23 20:46 | 64.42153 | -51.89468 | 10330 ft | 191 kts | 335° |
| 2026-04-23 20:46 | 64.43376 | -51.90693 | 10786 ft | 192 kts | 335° |
| 2026-04-23 20:46 | 64.44589 | -51.91908 | 11227 ft | 193 kts | 335° |
| 2026-04-23 20:46 | 64.45826 | -51.93149 | 11653 ft | 194 kts | 335° |
| 2026-04-23 20:47 | 64.47051 | -51.94380 | 12068 ft | 196 kts | 335° |
| 2026-04-23 20:47 | 64.48295 | -51.95630 | 12481 ft | 196 kts | 335° |
| 2026-04-23 20:47 | 64.49545 | -51.96888 | 12883 ft | 197 kts | 335° |
| 2026-04-23 20:47 | 64.50803 | -51.98154 | 13279 ft | 198 kts | 335° |
| 2026-04-23 20:48 | 64.52070 | -51.99430 | 13696 ft | 200 kts | 335° |
| 2026-04-23 20:48 | 64.53336 | -52.00706 | 14121 ft | 202 kts | 335° |
| 2026-04-23 20:48 | 64.54632 | -52.02013 | 14544 ft | 203 kts | 335° |
| 2026-04-23 20:48 | 64.55925 | -52.03321 | 14946 ft | 205 kts | 335° |
| 2026-04-23 20:49 | 64.57228 | -52.04639 | 15306 ft | 207 kts | 335° |
| 2026-04-23 20:49 | 64.58581 | -52.05728 | 15666 ft | 209 kts | 334° |
| 2026-04-23 20:49 | 64.59881 | -52.07224 | 16053 ft | 210 kts | 333° |
| 2026-04-23 20:49 | 64.61215 | -52.08646 | 16424 ft | 212 kts | 334° |
| 2026-04-23 20:50 | 64.62553 | -52.10032 | 16786 ft | 214 kts | 334° |
| 2026-04-23 20:50 | 64.63924 | -52.11432 | 17144 ft | 216 kts | 334° |
| 2026-04-23 20:50 | 64.65292 | -52.12820 | 17490 ft | 218 kts | 334° |
| 2026-04-23 20:50 | 64.66682 | -52.14230 | 17831 ft | 219 kts | 334° |
| 2026-04-23 20:51 | 64.68070 | -52.15642 | 18161 ft | 221 kts | 334° |
| 2026-04-23 20:51 | 64.69487 | -52.17090 | 18489 ft | 223 kts | 334° |
| 2026-04-23 20:51 | 64.70880 | -52.18515 | 18761 ft | 222 kts | 334° |
| 2026-04-23 20:51 | 64.72309 | -52.19979 | 18976 ft | 225 kts | 334° |
| 2026-04-23 20:52 | 64.73737 | -52.21443 | 19198 ft | 226 kts | 334° |
| 2026-04-23 20:52 | 64.75177 | -52.22922 | 19376 ft | 231 kts | 333° |
| 2026-04-23 20:52 | 64.76676 | -52.24468 | 19402 ft | 243 kts | 334° |
| 2026-04-23 20:52 | 64.78257 | -52.26099 | 19405 ft | 254 kts | 334° |
| 2026-04-23 20:53 | 64.79906 | -52.27805 | 19393 ft | 263 kts | 334° |
| 2026-04-23 20:53 | 64.81576 | -52.29530 | 19390 ft | 270 kts | 334° |
| 2026-04-23 20:53 | 64.83321 | -52.31331 | 19388 ft | 276 kts | 334° |
| 2026-04-23 20:53 | 64.85075 | -52.33144 | 19385 ft | 281 kts | 334° |
| 2026-04-23 20:54 | 64.86879 | -52.35012 | 19376 ft | 285 kts | 334° |
| 2026-04-23 20:54 | 64.88702 | -52.36903 | 19373 ft | 288 kts | 333° |
| 2026-04-23 20:54 | 64.90527 | -52.38797 | 19371 ft | 290 kts | 333° |
| 2026-04-23 20:54 | 64.92373 | -52.40717 | 19367 ft | 290 kts | 333° |
| 2026-04-23 20:55 | 64.94208 | -52.42627 | 19367 ft | 290 kts | 333° |
| 2026-04-23 20:55 | 64.96034 | -52.44533 | 19368 ft | 290 kts | 333° |
| 2026-04-23 20:55 | 64.97887 | -52.46470 | 19369 ft | 291 kts | 333° |
| 2026-04-23 20:55 | 64.99713 | -52.48382 | 19370 ft | 291 kts | 333° |
| 2026-04-23 20:56 | 65.01574 | -52.50333 | 19371 ft | 291 kts | 333° |
| 2026-04-23 20:56 | 65.03414 | -52.52267 | 19373 ft | 291 kts | 333° |
| 2026-04-23 20:56 | 65.05239 | -52.54186 | 19374 ft | 291 kts | 333° |
| 2026-04-23 20:56 | 65.07079 | -52.56124 | 19375 ft | 291 kts | 333° |
| 2026-04-23 20:57 | 65.08941 | -52.58087 | 19377 ft | 291 kts | 333° |
| 2026-04-23 20:57 | 65.10770 | -52.60020 | 19375 ft | 291 kts | 333° |
| 2026-04-23 20:57 | 65.12602 | -52.61958 | 19374 ft | 291 kts | 333° |
| 2026-04-23 20:57 | 65.14450 | -52.63917 | 19376 ft | 290 kts | 332° |
| 2026-04-23 20:58 | 65.16298 | -52.65879 | 19378 ft | 290 kts | 331° |
| 2026-04-23 20:58 | 65.18131 | -52.67828 | 19380 ft | 290 kts | 331° |
| 2026-04-23 20:58 | 65.19949 | -52.69764 | 19382 ft | 290 kts | 331° |
| 2026-04-23 20:58 | 65.21786 | -52.71724 | 19383 ft | 290 kts | 331° |
| 2026-04-23 20:59 | 65.23611 | -52.73674 | 19385 ft | 290 kts | 331° |
| 2026-04-23 20:59 | 65.25442 | -52.75632 | 19386 ft | 289 kts | 331° |
| 2026-04-23 20:59 | 65.27290 | -52.77612 | 19388 ft | 289 kts | 331° |
| 2026-04-23 20:59 | 65.29111 | -52.79567 | 19390 ft | 289 kts | 331° |
| 2026-04-23 21:00 | 65.30940 | -52.81533 | 19391 ft | 289 kts | 331° |
| 2026-04-23 21:00 | 65.32759 | -52.83490 | 19392 ft | 289 kts | 331° |
| 2026-04-23 21:00 | 65.34587 | -52.85460 | 19394 ft | 289 kts | 331° |
| 2026-04-23 21:00 | 65.36423 | -52.87443 | 19395 ft | 289 kts | 331° |
| 2026-04-23 21:01 | 65.38248 | -52.89417 | 19397 ft | 289 kts | 331° |
| 2026-04-23 21:01 | 65.40078 | -52.91399 | 19398 ft | 289 kts | 330° |
| 2026-04-23 21:01 | 65.42009 | -52.92856 | 19396 ft | 295 kts | 345° |
| 2026-04-23 21:01 | 65.43999 | -52.93726 | 19404 ft | 295 kts | 345° |
| 2026-04-23 21:02 | 65.46011 | -52.94640 | 19402 ft | 295 kts | 345° |
| 2026-04-23 21:02 | 65.48006 | -52.95569 | 19404 ft | 295 kts | 345° |
| 2026-04-23 21:02 | 65.50011 | -52.96520 | 19405 ft | 295 kts | 344° |
| 2026-04-23 21:02 | 65.52017 | -52.97480 | 19405 ft | 295 kts | 344° |
| 2026-04-23 21:03 | 65.54017 | -52.98443 | 19404 ft | 295 kts | 344° |
| 2026-04-23 21:03 | 65.56023 | -52.99410 | 19407 ft | 295 kts | 344° |
| 2026-04-23 21:03 | 65.58021 | -53.00377 | 19409 ft | 295 kts | 344° |
| 2026-04-23 21:03 | 65.60046 | -53.01358 | 19410 ft | 295 kts | 344° |
| 2026-04-23 21:04 | 65.62052 | -53.02330 | 19412 ft | 295 kts | 344° |
| 2026-04-23 21:04 | 65.64059 | -53.03305 | 19413 ft | 295 kts | 344° |
| 2026-04-23 21:04 | 65.66063 | -53.04281 | 19414 ft | 295 kts | 344° |
| 2026-04-23 21:04 | 65.68063 | -53.05255 | 19416 ft | 295 kts | 344° |
| 2026-04-23 21:05 | 65.70073 | -53.06237 | 19417 ft | 295 kts | 343° |
| 2026-04-23 21:05 | 65.72057 | -53.07206 | 19418 ft | 295 kts | 343° |
| 2026-04-23 21:05 | 65.74062 | -53.08189 | 19420 ft | 295 kts | 343° |
| 2026-04-23 21:05 | 65.76079 | -53.09179 | 19421 ft | 296 kts | 343° |
| 2026-04-23 21:06 | 65.78101 | -53.10174 | 19422 ft | 296 kts | 343° |
| 2026-04-23 21:06 | 65.80087 | -53.11152 | 19423 ft | 296 kts | 343° |
| 2026-04-23 21:06 | 65.82101 | -53.12146 | 19423 ft | 296 kts | 343° |
| 2026-04-23 21:06 | 65.84121 | -53.13142 | 19423 ft | 296 kts | 343° |
| 2026-04-23 21:07 | 65.86124 | -53.14131 | 19422 ft | 296 kts | 343° |
| 2026-04-23 21:07 | 65.88106 | -53.15231 | 19411 ft | 293 kts | 337° |
| 2026-04-23 21:07 | 65.89965 | -53.17202 | 19422 ft | 288 kts | 329° |
| 2026-04-23 21:07 | 65.91782 | -53.19250 | 19418 ft | 289 kts | 329° |
| 2026-04-23 21:08 | 65.93597 | -53.21277 | 19414 ft | 289 kts | 330° |
| 2026-04-23 21:08 | 65.95423 | -53.23298 | 19411 ft | 289 kts | 330° |
| 2026-04-23 21:08 | 65.97253 | -53.25315 | 19407 ft | 289 kts | 330° |
| 2026-04-23 21:08 | 65.99086 | -53.27331 | 19409 ft | 289 kts | 330° |
| 2026-04-23 21:09 | 66.00897 | -53.29327 | 19411 ft | 290 kts | 330° |
| 2026-04-23 21:09 | 66.02741 | -53.31358 | 19413 ft | 290 kts | 330° |
| 2026-04-23 21:09 | 66.04572 | -53.33380 | 19410 ft | 290 kts | 330° |
| 2026-04-23 21:09 | 66.06409 | -53.35412 | 19225 ft | 290 kts | 330° |
| 2026-04-23 21:10 | 66.08236 | -53.37427 | 19104 ft | 283 kts | 329° |
| 2026-04-23 21:10 | 66.10004 | -53.39382 | 18973 ft | 279 kts | 329° |
| 2026-04-23 21:10 | 66.11762 | -53.41336 | 18742 ft | 278 kts | 328° |
| 2026-04-23 21:10 | 66.13507 | -53.43281 | 18501 ft | 278 kts | 328° |
| 2026-04-23 21:11 | 66.15292 | -53.45279 | 18193 ft | 280 kts | 328° |
| 2026-04-23 21:11 | 66.17039 | -53.47232 | 17914 ft | 280 kts | 328° |
| 2026-04-23 21:11 | 66.18808 | -53.49210 | 17619 ft | 281 kts | 329° |
| 2026-04-23 21:11 | 66.20586 | -53.51199 | 17311 ft | 281 kts | 329° |
| 2026-04-23 21:12 | 66.22362 | -53.53188 | 16994 ft | 281 kts | 329° |
| 2026-04-23 21:12 | 66.24140 | -53.55185 | 16678 ft | 281 kts | 329° |
| 2026-04-23 21:12 | 66.25922 | -53.57190 | 16344 ft | 282 kts | 329° |
| 2026-04-23 21:12 | 66.27689 | -53.59181 | 16041 ft | 281 kts | 329° |
| 2026-04-23 21:13 | 66.29456 | -53.61170 | 15731 ft | 280 kts | 329° |
| 2026-04-23 21:13 | 66.31227 | -53.63164 | 15423 ft | 280 kts | 329° |
| 2026-04-23 21:13 | 66.32989 | -53.65161 | 15116 ft | 279 kts | 329° |
| 2026-04-23 21:13 | 66.34753 | -53.67159 | 14816 ft | 278 kts | 329° |
| 2026-04-23 21:14 | 66.36483 | -53.69128 | 14522 ft | 277 kts | 329° |
| 2026-04-23 21:14 | 66.38225 | -53.71108 | 14238 ft | 277 kts | 329° |
| 2026-04-23 21:14 | 66.39969 | -53.73093 | 13938 ft | 276 kts | 329° |
| 2026-04-23 21:14 | 66.41703 | -53.75071 | 13639 ft | 275 kts | 329° |
| 2026-04-23 21:15 | 66.43455 | -53.77069 | 13333 ft | 274 kts | 329° |
| 2026-04-23 21:15 | 66.45180 | -53.79040 | 13022 ft | 274 kts | 329° |
| 2026-04-23 21:15 | 66.46941 | -53.80753 | 12638 ft | 282 kts | 342° |
| 2026-04-23 21:15 | 66.48898 | -53.81274 | 12283 ft | 285 kts | 350° |
| 2026-04-23 21:16 | 66.50871 | -53.81715 | 11915 ft | 286 kts | 350° |
| 2026-04-23 21:16 | 66.52856 | -53.82162 | 11541 ft | 286 kts | 350° |
| 2026-04-23 21:16 | 66.54826 | -53.82625 | 11168 ft | 285 kts | 351° |
| 2026-04-23 21:16 | 66.56789 | -53.83096 | 10795 ft | 285 kts | 351° |
| 2026-04-23 21:17 | 66.58768 | -53.83336 | 10419 ft | 285 kts | 355° |
| 2026-04-23 21:17 | 66.60738 | -53.83562 | 10040 ft | 284 kts | 354° |
| 2026-04-23 21:17 | 66.62691 | -53.83826 | 9660 ft | 282 kts | 354° |
| 2026-04-23 21:17 | 66.64613 | -53.84128 | 9281 ft | 280 kts | 354° |
| 2026-04-23 21:18 | 66.66547 | -53.84475 | 8896 ft | 279 kts | 354° |
| 2026-04-23 21:18 | 66.68430 | -53.84854 | 8502 ft | 268 kts | 354° |
| 2026-04-23 21:18 | 66.70267 | -53.85262 | 8136 ft | 259 kts | 354° |
| 2026-04-23 21:18 | 66.72025 | -53.85694 | 7873 ft | 253 kts | 354° |
| 2026-04-23 21:19 | 66.73740 | -53.86145 | 7608 ft | 249 kts | 354° |
| 2026-04-23 21:19 | 66.75445 | -53.86600 | 7343 ft | 246 kts | 354° |
| 2026-04-23 21:19 | 66.77132 | -53.87057 | 7077 ft | 243 kts | 354° |
| 2026-04-23 21:19 | 66.78801 | -53.87517 | 6812 ft | 241 kts | 354° |
| 2026-04-23 21:20 | 66.80448 | -53.87978 | 6547 ft | 239 kts | 354° |
| 2026-04-23 21:20 | 66.82093 | -53.88446 | 6280 ft | 237 kts | 354° |
| 2026-04-23 21:20 | 66.83706 | -53.88913 | 6016 ft | 235 kts | 354° |
| 2026-04-23 21:20 | 66.85318 | -53.89386 | 5750 ft | 234 kts | 354° |
| 2026-04-23 21:21 | 66.86928 | -53.89865 | 5479 ft | 232 kts | 354° |
| 2026-04-23 21:21 | 66.88413 | -53.89919 | 5182 ft | 189 kts | 8° |
| 2026-04-23 21:21 | 66.89559 | -53.89034 | 4751 ft | 164 kts | 27° |
| 2026-04-23 21:21 | 66.90484 | -53.87594 | 4196 ft | 156 kts | 34° |
| 2026-04-23 21:22 | 66.91365 | -53.86056 | 3625 ft | 152 kts | 36° |
| 2026-04-23 21:22 | 66.92201 | -53.84587 | 3121 ft | 141 kts | 34° |
| 2026-04-23 21:22 | 66.92969 | -53.83316 | 2684 ft | 127 kts | 32° |
| 2026-04-23 21:22 | 66.93677 | -53.82213 | 2271 ft | 112 kts | 31° |
| 2026-04-23 21:23 | 66.94326 | -53.81250 | 1790 ft | 106 kts | 30° |
| 2026-04-23 21:23 | 66.94945 | -53.80348 | 1305 ft | 103 kts | 31° |
| 2026-04-23 21:23 | 66.95387 | -53.79087 | 884 ft | 96 kts | 73° |
| 2026-04-23 21:23 | 66.95451 | -53.77369 | 539 ft | 95 kts | 87° |
| 2026-04-23 21:24 | 66.95394 | -53.75695 | 291 ft | 95 kts | 99° |
| 2026-04-23 21:24 | 66.95242 | -53.74073 | 79 ft | 93 kts | 101° |
| 2026-04-23 21:24 | 66.95112 | -53.72692 | 26 ft | 40 kts | 104° |
| 2026-04-23 21:24 | 66.95090 | -53.72268 | 24 ft | 12 kts | 19° |
| 2026-04-23 21:25 | 66.95152 | -53.72294 | 24 ft | 7 kts | 314° |
| 2026-04-23 21:25 | 66.95149 | -53.72319 | 25 ft | 4 kts | 122° |
| 2026-04-23 21:25 | 66.95147 | -53.72310 | 24 ft | 0 kts | 112° |